createdAt,value
2019-02-20T00:01:37.971Z,101498.20
2019-02-20T00:04:07.703Z,101489.52
2019-02-20T00:06:38.279Z,101499.95
2019-02-20T00:09:07.853Z,101501.25
2019-02-20T00:11:40.792Z,101506.03
2019-02-20T00:14:10.221Z,101510.39
2019-02-20T00:16:39.637Z,101508.64
2019-02-20T00:19:09.062Z,101509.52
2019-02-20T00:21:38.465Z,101510.34
2019-02-20T00:24:16.054Z,101516.86
2019-02-20T00:26:45.457Z,101519.02
2019-02-20T00:29:14.890Z,101517.30
2019-02-20T00:31:44.380Z,101512.13
2019-02-20T00:34:13.885Z,101518.19
2019-02-20T00:36:45.623Z,101510.80
2019-02-20T00:39:17.044Z,101518.15
2019-02-20T00:41:47.019Z,101525.98
2019-02-20T00:44:18.097Z,101521.22
2019-02-20T00:46:49.147Z,101522.11
2019-02-20T00:49:22.762Z,101520.77
2019-02-20T00:52:03.054Z,101526.45
2019-02-20T00:54:33.078Z,101532.95
2019-02-20T00:57:05.267Z,101528.61
2019-02-20T00:59:34.768Z,101529.89
2019-02-20T01:02:04.244Z,101543.77
2019-02-20T01:04:33.816Z,101538.13
2019-02-20T01:07:03.585Z,101535.13
2019-02-20T01:09:36.752Z,101534.25
2019-02-20T01:12:08.424Z,101537.30
2019-02-20T01:14:41.562Z,101535.98
2019-02-20T01:17:12.683Z,101536.87
2019-02-20T01:19:42.184Z,101531.23
2019-02-20T01:22:12.075Z,101527.33
2019-02-20T01:24:41.497Z,101530.80
2019-02-20T01:27:13.012Z,101528.64
2019-02-20T01:29:44.941Z,101535.56
2019-02-20T01:32:14.349Z,101529.09
2019-02-20T01:34:45.382Z,101527.80
2019-02-20T01:37:17.578Z,101525.19
2019-02-20T01:39:47.012Z,101528.64
2019-02-20T01:42:16.687Z,101526.08
2019-02-20T01:44:46.189Z,101529.57
2019-02-20T01:47:15.660Z,101533.00
2019-02-20T01:49:45.100Z,101532.12
2019-02-20T01:52:16.159Z,101530.83
2019-02-20T01:54:45.899Z,101532.13
2019-02-20T01:57:19.141Z,101526.97
2019-02-20T01:59:48.563Z,101521.78
2019-02-20T02:02:17.981Z,101523.50
2019-02-20T02:04:49.497Z,101517.02
2019-02-20T02:07:21.232Z,101513.56
2019-02-20T02:09:50.669Z,101514.00
2019-02-20T02:12:20.155Z,101520.08
2019-02-20T02:14:49.573Z,101517.03
2019-02-20T02:17:19.143Z,101530.02
2019-02-20T02:19:48.623Z,101514.45
2019-02-20T02:22:18.126Z,101521.37
2019-02-20T02:24:47.531Z,101525.27
2019-02-20T02:27:18.486Z,101521.83
2019-02-20T02:29:50.354Z,101526.14
2019-02-20T02:32:19.858Z,101531.35
2019-02-20T02:34:50.965Z,101535.22
2019-02-20T02:37:22.560Z,101533.05
2019-02-20T02:39:53.785Z,101529.15
2019-02-20T02:42:25.001Z,101528.75
2019-02-20T02:44:54.419Z,101535.25
2019-02-20T02:47:25.485Z,101534.81
2019-02-20T02:50:04.202Z,101540.43
2019-02-20T02:52:36.682Z,101539.98
2019-02-20T02:55:10.137Z,101535.23
2019-02-20T02:57:39.579Z,101530.47
2019-02-20T03:00:10.812Z,101530.48
2019-02-20T03:02:40.711Z,101531.36
2019-02-20T03:05:11.699Z,101520.53
2019-02-20T03:07:43.179Z,101528.32
2019-02-20T03:10:14.148Z,101534.38
2019-02-20T03:12:43.653Z,101534.33
2019-02-20T03:15:14.275Z,101532.19
2019-02-20T03:17:46.650Z,101533.94
2019-02-20T03:20:16.516Z,101530.03
2019-02-20T03:22:48.835Z,101533.53
2019-02-20T03:25:18.534Z,101536.55
2019-02-20T03:27:50.737Z,101540.45
2019-02-20T03:30:20.163Z,101540.89
2019-02-20T03:32:51.857Z,101538.70
2019-02-20T03:35:22.330Z,101538.28
2019-02-20T03:37:51.754Z,101536.10
2019-02-20T03:40:21.728Z,101534.40
2019-02-20T03:42:52.684Z,101539.58
2019-02-20T03:45:24.293Z,101540.86
2019-02-20T03:47:53.718Z,101543.47
2019-02-20T03:50:23.196Z,101538.73
2019-02-20T03:52:55.830Z,101534.84
2019-02-20T03:55:25.363Z,101540.89
2019-02-20T03:57:58.024Z,101535.70
2019-02-20T04:00:27.434Z,101531.82
2019-02-20T04:02:56.846Z,101537.02
2019-02-20T04:05:29.667Z,101529.24
2019-02-20T04:08:00.735Z,101529.66
2019-02-20T04:10:30.173Z,101528.36
2019-02-20T04:13:03.226Z,101535.72
2019-02-20T04:15:34.564Z,101530.54
2019-02-20T04:18:05.948Z,101534.44
2019-02-20T04:20:35.371Z,101533.97
2019-02-20T04:23:06.334Z,101535.27
2019-02-20T04:25:39.396Z,101527.94
2019-02-20T04:28:08.823Z,101528.37
2019-02-20T04:30:41.423Z,101526.20
2019-02-20T04:33:15.703Z,101529.23
2019-02-20T04:35:45.399Z,101527.06
2019-02-20T04:38:19.485Z,101530.54
2019-02-20T04:40:48.912Z,101532.28
2019-02-20T04:43:24.589Z,101535.30
2019-02-20T04:45:53.990Z,101539.19
2019-02-20T04:48:23.405Z,101536.59
2019-02-20T04:50:52.823Z,101536.62
2019-02-20T04:53:29.299Z,101540.08
2019-02-20T04:55:58.705Z,101538.78
2019-02-20T04:58:28.362Z,101534.00
2019-02-20T05:01:04.373Z,101537.89
2019-02-20T05:03:34.144Z,101537.03
2019-02-20T05:06:03.552Z,101545.23
2019-02-20T05:08:35.192Z,101541.80
2019-02-20T05:11:08.003Z,101544.84
2019-02-20T05:13:46.530Z,101545.27
2019-02-20T05:16:20.058Z,101544.84
2019-02-20T05:18:52.578Z,101547.00
2019-02-20T05:21:22.258Z,101550.05
2019-02-20T05:23:53.256Z,101541.80
2019-02-20T05:26:23.302Z,101546.13
2019-02-20T05:28:55.156Z,101545.70
2019-02-20T05:31:24.874Z,101547.88
2019-02-20T05:33:54.778Z,101545.70
2019-02-20T05:36:24.748Z,101546.59
2019-02-20T05:38:59.070Z,101546.14
2019-02-20T05:41:31.384Z,101535.76
2019-02-20T05:44:02.355Z,101542.69
2019-02-20T05:46:31.777Z,101538.34
2019-02-20T05:49:02.494Z,101543.55
2019-02-20T05:51:32.404Z,101548.30
2019-02-20T05:54:01.907Z,101544.41
2019-02-20T05:56:31.881Z,101546.59
2019-02-20T05:59:01.309Z,101553.94
2019-02-20T06:01:31.781Z,101559.15
2019-02-20T06:04:01.452Z,101556.98
2019-02-20T06:06:32.345Z,101566.92
2019-02-20T06:09:06.522Z,101570.81
2019-02-20T06:11:37.553Z,101567.78
2019-02-20T06:14:08.910Z,101563.47
2019-02-20T06:16:42.444Z,101559.98
2019-02-20T06:19:19.823Z,101565.62
2019-02-20T06:21:54.330Z,101567.78
2019-02-20T06:24:28.099Z,101573.42
2019-02-20T06:26:57.509Z,101573.41
2019-02-20T06:29:28.734Z,101573.41
2019-02-20T06:31:58.126Z,101583.36
2019-02-20T06:34:27.560Z,101573.39
2019-02-20T06:36:56.980Z,101581.19
2019-02-20T06:39:29.171Z,101589.40
2019-02-20T06:42:01.053Z,101584.20
2019-02-20T06:44:30.669Z,101591.56
2019-02-20T06:47:00.071Z,101590.70
2019-02-20T06:49:31.171Z,101593.30
2019-02-20T06:52:01.331Z,101592.42
2019-02-20T06:54:31.135Z,101599.78
2019-02-20T06:57:00.548Z,101604.97
2019-02-20T06:59:29.988Z,101605.41
2019-02-20T07:02:01.054Z,101614.92
2019-02-20T07:04:34.721Z,101615.34
2019-02-20T07:07:18.506Z,101621.86
2019-02-20T07:10:09.603Z,101629.19
2019-02-20T07:12:51.168Z,101623.14
2019-02-20T07:15:29.279Z,101617.08
2019-02-20T07:18:19.960Z,101623.13
2019-02-20T07:21:18.430Z,101617.94
2019-02-20T07:24:02.456Z,101625.30
2019-02-20T07:26:56.198Z,101631.80
2019-02-20T07:29:59.809Z,101624.86
2019-02-20T07:32:29.591Z,101629.18
2019-02-20T07:35:00.551Z,101636.12
2019-02-20T07:37:30.027Z,101632.66
2019-02-20T07:39:59.420Z,101646.92
2019-02-20T07:42:28.882Z,101642.59
2019-02-20T07:44:58.308Z,101655.13
2019-02-20T07:47:27.732Z,101655.11
2019-02-20T07:49:57.184Z,101656.86
2019-02-20T07:52:26.604Z,101660.33
2019-02-20T07:54:56.056Z,101669.82
2019-02-20T07:57:25.479Z,101675.02
2019-02-20T07:59:54.880Z,101675.01
2019-02-20T08:02:24.328Z,101670.67
2019-02-20T08:04:53.750Z,101685.38
2019-02-20T08:07:23.186Z,101680.19
2019-02-20T08:09:52.682Z,101678.47
2019-02-20T08:12:23.188Z,101675.44
2019-02-20T08:14:52.599Z,101687.14
2019-02-20T08:17:22.036Z,101690.59
2019-02-20T08:19:51.453Z,101699.23
2019-02-20T08:22:20.898Z,101700.55
2019-02-20T08:24:50.310Z,101705.30
2019-02-20T08:27:19.762Z,101711.34
2019-02-20T08:29:49.247Z,101707.00
2019-02-20T08:32:18.673Z,101715.22
2019-02-20T08:34:48.093Z,101712.20
2019-02-20T08:37:17.537Z,101711.72
2019-02-20T08:39:46.973Z,101719.09
2019-02-20T08:42:16.401Z,101725.12
2019-02-20T08:44:45.897Z,101722.09
2019-02-20T08:47:15.343Z,101722.07
2019-02-20T08:49:45.827Z,101729.86
2019-02-20T08:52:15.265Z,101735.94
2019-02-20T08:54:44.759Z,101734.22
2019-02-20T08:57:14.207Z,101739.84
2019-02-20T08:59:43.699Z,101739.83
2019-02-20T09:02:13.149Z,101742.03
2019-02-20T09:04:42.651Z,101762.41
2019-02-20T09:07:12.087Z,101761.95
2019-02-20T09:09:41.503Z,101764.16
2019-02-20T09:12:10.940Z,101763.66
2019-02-20T09:14:40.353Z,101755.87
2019-02-20T09:17:09.859Z,101764.08
2019-02-20T09:19:39.295Z,101774.05
2019-02-20T09:22:09.799Z,101763.20
2019-02-20T09:24:39.236Z,101763.18
2019-02-20T09:27:08.665Z,101770.95
2019-02-20T09:29:38.106Z,101770.09
2019-02-20T09:32:07.529Z,101772.21
2019-02-20T09:34:36.967Z,101776.52
2019-02-20T09:37:06.483Z,101771.27
2019-02-20T09:39:37.035Z,101769.97
2019-02-20T09:42:08.117Z,101765.99
2019-02-20T09:44:45.756Z,101766.88
2019-02-20T09:47:15.344Z,101760.77
2019-02-20T09:49:44.765Z,101761.18
2019-02-20T09:52:14.203Z,101762.94
2019-02-20T09:54:43.778Z,101767.66
2019-02-20T09:57:13.279Z,101774.12
2019-02-20T09:59:42.774Z,101770.72
2019-02-20T10:02:12.212Z,101778.01
2019-02-20T10:04:41.636Z,101783.16
2019-02-20T10:07:11.148Z,101778.75
2019-02-20T10:09:42.988Z,101775.67
2019-02-20T10:12:11.983Z,101777.69
2019-02-20T10:14:41.478Z,101785.08
2019-02-20T10:17:10.924Z,101792.87
2019-02-20T10:19:40.404Z,101788.89
2019-02-20T10:22:12.617Z,101799.28
2019-02-20T10:24:42.041Z,101800.55
2019-02-20T10:27:13.554Z,101801.80
2019-02-20T10:29:42.982Z,101800.98
2019-02-20T10:32:12.558Z,101803.59
2019-02-20T10:34:41.984Z,101804.75
2019-02-20T10:37:11.526Z,101807.35
2019-02-20T10:39:42.438Z,101806.92
2019-02-20T10:42:11.888Z,101800.50
2019-02-20T10:44:41.378Z,101813.44
2019-02-20T10:47:10.800Z,101811.20
2019-02-20T10:49:40.342Z,101809.03
2019-02-20T10:52:09.724Z,101807.22
2019-02-20T10:54:39.168Z,101813.19
2019-02-20T10:57:08.589Z,101817.45
2019-02-20T10:59:38.040Z,101809.52
2019-02-20T11:02:07.674Z,101809.13
2019-02-20T11:04:37.184Z,101813.09
2019-02-20T11:07:08.198Z,101818.30
2019-02-20T11:09:37.647Z,101818.27
2019-02-20T11:12:07.151Z,101817.36
2019-02-20T11:14:37.819Z,101817.42
2019-02-20T11:17:07.522Z,101822.66
2019-02-20T11:19:37.157Z,101820.84
2019-02-20T11:22:09.904Z,101820.69
2019-02-20T11:24:39.343Z,101821.98
2019-02-20T11:27:08.769Z,101822.67
2019-02-20T11:29:38.206Z,101828.34
2019-02-20T11:32:07.706Z,101828.34
2019-02-20T11:34:37.218Z,101826.05
2019-02-20T11:37:06.641Z,101830.23
2019-02-20T11:39:37.950Z,101825.47
2019-02-20T11:42:07.463Z,101821.34
2019-02-20T11:44:36.917Z,101819.44
2019-02-20T11:47:06.990Z,101826.47
2019-02-20T11:49:36.436Z,101834.25
2019-02-20T11:52:05.857Z,101828.86
2019-02-20T11:54:35.312Z,101829.68
2019-02-20T11:57:05.803Z,101824.08
2019-02-20T11:59:35.477Z,101829.13
2019-02-20T12:02:04.917Z,101825.41
2019-02-20T12:04:34.431Z,101820.54
2019-02-20T12:07:03.939Z,101818.61
2019-02-20T12:09:33.379Z,101818.54
2019-02-20T12:12:02.875Z,101823.33
2019-02-20T12:14:35.339Z,101824.73
2019-02-20T12:17:04.769Z,101818.88
2019-02-20T12:19:35.915Z,101816.00
2019-02-20T12:22:05.473Z,101822.48
2019-02-20T12:24:35.477Z,101824.13
2019-02-20T12:27:07.863Z,101820.70
2019-02-20T12:29:37.944Z,101818.05
2019-02-20T12:32:09.532Z,101809.67
2019-02-20T12:34:46.451Z,101816.98
2019-02-20T12:37:16.056Z,101823.95
2019-02-20T12:39:45.477Z,101817.52
2019-02-20T12:42:16.665Z,101825.87
2019-02-20T12:44:46.172Z,101822.07
2019-02-20T12:47:15.649Z,101821.63
2019-02-20T12:49:46.388Z,101818.25
2019-02-20T12:52:15.894Z,101819.53
2019-02-20T12:54:45.325Z,101823.42
2019-02-20T12:57:14.739Z,101823.42
2019-02-20T12:59:44.256Z,101821.27
2019-02-20T13:02:13.868Z,101826.17
2019-02-20T13:04:46.441Z,101821.44
2019-02-20T13:07:17.654Z,101817.52
2019-02-20T13:09:47.234Z,101822.60
2019-02-20T13:12:21.502Z,101824.48
2019-02-20T13:14:50.929Z,101823.54
2019-02-20T13:17:23.689Z,101816.21
2019-02-20T13:19:54.291Z,101813.84
2019-02-20T13:22:23.727Z,101811.23
2019-02-20T13:24:53.236Z,101811.59
2019-02-20T13:27:23.226Z,101807.70
2019-02-20T13:29:52.663Z,101806.22
2019-02-20T13:32:24.791Z,101806.31
2019-02-20T13:34:54.223Z,101805.01
2019-02-20T13:37:23.643Z,101804.11
2019-02-20T13:39:53.151Z,101800.60
2019-02-20T13:42:22.636Z,101802.42
2019-02-20T13:44:53.761Z,101807.58
2019-02-20T13:47:23.350Z,101809.73
2019-02-20T13:49:52.814Z,101813.03
2019-02-20T13:52:22.693Z,101813.41
2019-02-20T13:54:52.573Z,101819.38
2019-02-20T13:57:22.699Z,101816.48
2019-02-20T13:59:55.211Z,101813.93
2019-02-20T14:02:24.636Z,101810.41
2019-02-20T14:04:54.057Z,101809.50
2019-02-20T14:07:26.421Z,101795.70
2019-02-20T14:09:55.857Z,101805.70
2019-02-20T14:12:28.655Z,101803.55
2019-02-20T14:14:58.098Z,101809.95
2019-02-20T14:17:27.503Z,101812.70
2019-02-20T14:19:56.936Z,101806.50
2019-02-20T14:22:27.412Z,101812.92
2019-02-20T14:24:57.228Z,101812.44
2019-02-20T14:27:26.717Z,101811.53
2019-02-20T14:29:58.911Z,101813.28
2019-02-20T14:32:28.325Z,101810.69
2019-02-20T14:34:57.824Z,101813.23
2019-02-20T14:37:27.249Z,101814.29
2019-02-20T14:39:57.094Z,101807.39
2019-02-20T14:42:26.507Z,101811.11
2019-02-20T14:44:57.819Z,101806.00
2019-02-20T14:47:29.316Z,101815.32
2019-02-20T14:49:58.774Z,101815.70
2019-02-20T14:52:28.203Z,101820.11
2019-02-20T14:54:57.935Z,101820.63
2019-02-20T14:57:30.263Z,101815.30
2019-02-20T15:00:01.794Z,101814.47
2019-02-20T15:02:32.387Z,101821.09
2019-02-20T15:05:02.116Z,101820.31
2019-02-20T15:07:33.780Z,101821.66
2019-02-20T15:10:03.116Z,101823.55
2019-02-20T15:12:36.450Z,101819.19
2019-02-20T15:15:10.818Z,101820.52
2019-02-20T15:17:39.924Z,101825.77
2019-02-20T15:20:11.235Z,101825.36
2019-02-20T15:22:40.703Z,101824.59
2019-02-20T15:25:12.242Z,101818.52
2019-02-20T15:27:41.653Z,101822.94
2019-02-20T15:30:16.035Z,101828.28
2019-02-20T15:32:47.159Z,101819.55
2019-02-20T15:35:16.897Z,101829.52
2019-02-20T15:37:49.206Z,101826.48
2019-02-20T15:40:20.195Z,101827.34
2019-02-20T15:42:49.681Z,101826.11
2019-02-20T15:45:19.173Z,101828.73
2019-02-20T15:47:48.972Z,101829.15
2019-02-20T15:50:21.300Z,101833.94
2019-02-20T15:52:51.015Z,101831.39
2019-02-20T15:55:20.625Z,101830.59
2019-02-20T15:57:50.694Z,101843.17
2019-02-20T16:00:23.918Z,101839.74
2019-02-20T16:02:53.009Z,101836.73
2019-02-20T16:05:22.560Z,101843.66
2019-02-20T16:07:58.730Z,101839.38
2019-02-20T16:10:31.055Z,101848.43
2019-02-20T16:13:00.561Z,101846.73
2019-02-20T16:15:30.057Z,101845.88
2019-02-20T16:18:00.263Z,101850.69
2019-02-20T16:20:29.719Z,101853.38
2019-02-20T16:23:00.665Z,101856.38
2019-02-20T16:25:30.093Z,101853.36
2019-02-20T16:27:59.527Z,101849.95
2019-02-20T16:30:28.927Z,101855.98
2019-02-20T16:32:58.605Z,101861.20
2019-02-20T16:35:28.019Z,101863.44
2019-02-20T16:37:57.457Z,101860.38
2019-02-20T16:40:26.935Z,101864.31
2019-02-20T16:42:56.433Z,101866.08
2019-02-20T16:45:26.279Z,101860.47
2019-02-20T16:47:56.143Z,101859.18
2019-02-20T16:50:25.693Z,101859.63
2019-02-20T16:52:55.227Z,101858.80
2019-02-20T16:55:24.625Z,101864.90
2019-02-20T16:57:56.701Z,101856.19
2019-02-20T17:00:26.839Z,101868.33
2019-02-20T17:02:56.646Z,101862.29
2019-02-20T17:05:26.239Z,101872.31
2019-02-20T17:07:55.783Z,101878.84
2019-02-20T17:10:25.350Z,101879.27
2019-02-20T17:12:54.884Z,101878.03
2019-02-20T17:15:24.387Z,101880.66
2019-02-20T17:17:54.243Z,101881.56
2019-02-20T17:20:23.866Z,101883.72
2019-02-20T17:22:53.539Z,101885.86
2019-02-20T17:25:23.733Z,101886.34
2019-02-20T17:27:53.296Z,101890.73
2019-02-20T17:30:22.845Z,101892.08
2019-02-20T17:32:52.378Z,101896.42
2019-02-20T17:35:26.009Z,101899.91
2019-02-20T17:37:55.591Z,101896.88
2019-02-20T17:40:25.013Z,101901.70
2019-02-20T17:42:55.460Z,101902.56
2019-02-20T17:45:28.473Z,101902.11
2019-02-20T17:47:57.976Z,101906.00
2019-02-20T17:50:29.082Z,101906.00
2019-02-20T17:52:58.516Z,101904.25
2019-02-20T17:55:27.947Z,101906.87
2019-02-20T17:57:57.491Z,101908.62
2019-02-20T18:00:28.585Z,101905.98
2019-02-20T18:03:01.700Z,101917.73
2019-02-20T18:05:34.253Z,101909.92
2019-02-20T18:08:03.787Z,101912.95
2019-02-20T18:10:38.157Z,101910.33
2019-02-20T18:13:09.425Z,101912.08
2019-02-20T18:15:42.139Z,101911.66
2019-02-20T18:18:15.205Z,101914.73
2019-02-20T18:20:46.812Z,101913.00
2019-02-20T18:23:17.374Z,101913.03
2019-02-20T18:25:49.408Z,101913.90
2019-02-20T18:28:24.744Z,101914.33
2019-02-20T18:30:53.450Z,101916.95
2019-02-20T18:33:24.428Z,101912.20
2019-02-20T18:35:54.113Z,101913.94
2019-02-20T18:38:23.656Z,101912.64
2019-02-20T18:40:56.651Z,101916.52
2019-02-20T18:43:26.642Z,101918.73
2019-02-20T18:45:56.079Z,101919.59
2019-02-20T18:48:25.535Z,101915.67
2019-02-20T18:50:54.959Z,101919.18
2019-02-20T18:53:24.403Z,101918.73
2019-02-20T18:55:55.989Z,101929.59
2019-02-20T18:58:33.492Z,101929.58
2019-02-20T19:00:56.201Z,101926.97
2019-02-20T19:03:25.717Z,101928.69
2019-02-20T19:05:57.062Z,101935.22
2019-02-20T19:08:32.258Z,101940.84
2019-02-20T19:11:07.665Z,101943.02
2019-02-20T19:13:58.044Z,101939.52
2019-02-20T19:16:45.084Z,101941.70
2019-02-20T19:19:20.897Z,101943.44
2019-02-20T19:21:56.089Z,101945.16
2019-02-20T19:24:46.426Z,101946.48
2019-02-20T19:27:41.704Z,101945.61
2019-02-20T19:30:32.415Z,101941.70
2019-02-20T19:33:13.723Z,101946.05
2019-02-20T19:36:02.383Z,101945.19
2019-02-20T19:38:40.691Z,101952.11
2019-02-20T19:41:28.350Z,101956.45
2019-02-20T19:44:12.860Z,101950.38
2019-02-20T19:47:00.418Z,101952.55
2019-02-20T19:49:39.482Z,101951.25
2019-02-20T19:52:29.331Z,101953.41
2019-02-20T19:55:10.650Z,101942.58
2019-02-20T19:57:50.107Z,101946.91
2019-02-20T20:00:34.954Z,101946.02
2019-02-20T20:03:19.782Z,101950.80
2019-02-20T20:06:14.655Z,101948.64
2019-02-20T20:08:49.820Z,101947.78
2019-02-20T20:11:30.910Z,101949.07
2019-02-20T20:14:25.251Z,101943.03
2019-02-20T20:17:15.770Z,101945.19
2019-02-20T20:19:49.664Z,101944.33
2019-02-20T20:22:35.466Z,101939.95
2019-02-20T20:25:13.739Z,101943.45
2019-02-20T20:27:51.806Z,101938.23
2019-02-20T20:30:30.249Z,101935.63
2019-02-20T20:33:14.736Z,101940.84
2019-02-20T20:35:50.141Z,101936.06
2019-02-20T20:38:28.703Z,101936.94
2019-02-20T20:41:15.799Z,101937.38
2019-02-20T20:44:03.264Z,101937.80
2019-02-20T20:46:44.845Z,101937.40
2019-02-20T20:49:28.791Z,101933.93
2019-02-20T20:52:00.785Z,101934.35
2019-02-20T20:54:50.884Z,101937.41
2019-02-20T20:57:41.871Z,101937.86
2019-02-20T21:00:29.504Z,101941.31
2019-02-20T21:03:02.613Z,101938.73
2019-02-20T21:06:08.318Z,101936.54
2019-02-20T21:08:40.821Z,101927.45
2019-02-20T21:11:34.409Z,101920.95
2019-02-20T21:14:06.910Z,101922.67
2019-02-20T21:16:48.258Z,101918.35
2019-02-20T21:19:49.191Z,101925.73
2019-02-20T21:22:39.221Z,101927.92
2019-02-20T21:25:23.622Z,101927.06
2019-02-20T21:28:09.686Z,101927.06
2019-02-20T21:31:00.464Z,101926.62
2019-02-20T21:33:35.819Z,101927.06
2019-02-20T21:36:23.425Z,101930.53
2019-02-20T21:39:27.503Z,101929.66
2019-02-20T21:42:14.541Z,101930.96
2019-02-20T21:44:52.990Z,101932.27
2019-02-20T21:47:31.382Z,101938.77
2019-02-20T21:50:20.629Z,101934.00
2019-02-20T21:52:59.238Z,101936.58
2019-02-20T21:55:37.588Z,101932.26
2019-02-20T21:58:18.735Z,101934.44
2019-02-20T22:00:51.226Z,101937.04
2019-02-20T22:03:46.471Z,101940.94
2019-02-20T22:06:22.002Z,101932.70
2019-02-20T22:09:12.623Z,101935.28
2019-02-20T22:11:48.194Z,101929.22
2019-02-20T22:14:23.393Z,101933.56
2019-02-20T22:17:04.702Z,101936.59
2019-02-20T22:19:49.096Z,101938.78
2019-02-20T22:22:53.568Z,101939.64
2019-02-20T22:25:26.042Z,101942.67
2019-02-20T22:28:25.954Z,101939.63
2019-02-20T22:31:33.294Z,101940.94
2019-02-20T22:34:28.472Z,101943.97
2019-02-20T22:37:20.501Z,101945.27
2019-02-20T22:39:57.672Z,101951.34
2019-02-20T22:42:37.846Z,101948.30
2019-02-20T22:45:25.637Z,101952.19
2019-02-20T22:47:58.112Z,101960.88
2019-02-20T22:50:48.604Z,101963.03
2019-02-20T22:53:22.584Z,101963.45
2019-02-20T22:56:03.702Z,101967.38
2019-02-20T22:58:38.726Z,101966.05
2019-02-20T23:01:21.895Z,101964.78
2019-02-20T23:04:20.139Z,101966.93
2019-02-20T23:07:13.821Z,101956.95
2019-02-20T23:09:48.386Z,101960.02
2019-02-20T23:12:30.722Z,101957.84
2019-02-20T23:15:02.961Z,101958.68
2019-02-20T23:17:32.858Z,101960.44
2019-02-20T23:20:03.794Z,101956.11
2019-02-20T23:22:34.860Z,101959.56
2019-02-20T23:25:05.229Z,101962.58
2019-02-20T23:27:34.807Z,101961.73
2019-02-20T23:30:12.886Z,101975.15
2019-02-20T23:32:38.782Z,101973.85
2019-02-20T23:35:09.457Z,101975.61
2019-02-20T23:37:38.877Z,101975.59
2019-02-20T23:40:12.751Z,101967.34
2019-02-20T23:42:42.166Z,101965.20
2019-02-20T23:45:11.699Z,101971.27
2019-02-20T23:47:41.115Z,101966.08
2019-02-20T23:50:15.661Z,101971.28
2019-02-20T23:52:46.623Z,101966.92
2019-02-20T23:55:16.138Z,101965.63
2019-02-20T23:57:45.555Z,101964.75
